This is the latest recevied weather packets stored in our database for station/object PA2JOK. If no packets are shown the sender has not sent any weather packets the latest 1 day(s).
| Time | Temp. | Humidity | Pressure | Rain* | Wind** | Luminosity | Snow |
|---|---|---|---|---|---|---|---|
| 1836274107 | 17.22° C | 91% | 1012.7 hPa | 0 mm | 0 m/s | - | - |
| 1836273958 | 17.22° C | 91% | 1012.9 hPa | 0 mm | 0.89 m/s, 238° | - | - |
| 1778022183 | 9.44° C | 71% | 1009.5 hPa | 0 mm | 0 m/s | - | - |
| 1778021283 | 9.44° C | 71% | 1009.7 hPa | 0 mm | 0.89 m/s, 23° | - | - |
| 1778020382 | 9.44° C | 70% | 1009.8 hPa | 0 mm | 0 m/s | - | - |
| 1778019484 | 9.44° C | 70% | 1009.8 hPa | 0 mm | 0.89 m/s, 116° | - | - |
| 1778018582 | 9.44° C | 70% | 1010 hPa | 0 mm | 0 m/s | - | - |
| 1778017683 | 9.44° C | 71% | 1010 hPa | 0 mm | 0.89 m/s, 169° | - | - |
| 1778016783 | 9.44° C | 71% | 1010.1 hPa | 0 mm | 0 m/s | - | - |
| 1778015882 | 10° C | 71% | 1010 hPa | 0 mm | 2.68 m/s, 32° | - | - |
| 1778014982 | 10° C | 71% | 1010 hPa | 0 mm | 0 m/s | - | - |
| 1778014083 | 10° C | 71% | 1010.1 hPa | 0 mm | 1.79 m/s, 23° | - | - |
| 1778013183 | 10.56° C | 70% | 1010.1 hPa | 0 mm | 1.79 m/s, 58° | - | - |
| 1778012283 | 10.56° C | 69% | 1010.3 hPa | 0 mm | 0.89 m/s, 101° | - | - |
| 1778011383 | 10.56° C | 69% | 1010.1 hPa | 0 mm | 0 m/s | - | - |
| 1778010482 | 10.56° C | 69% | 1010.1 hPa | 0 mm | 0 m/s | - | - |
| 1778009583 | 10.56° C | 71% | 1009.9 hPa | 0 mm | 0.89 m/s, 14° | - | - |
| 1778008682 | 11.11° C | 70% | 1009.8 hPa | 0 mm | 0.89 m/s, 35° | - | - |
| 1778007784 | 11.11° C | 70% | 1009.6 hPa | 0 mm | 0.89 m/s, 40° | - | - |
| 1778006882 | 11.67° C | 69% | 1009.4 hPa | 0 mm | 0.89 m/s, 347° | - | - |
| 1778005982 | 11.67° C | 68% | 1009.5 hPa | 0 mm | 0.89 m/s, 33° | - | - |
| 1778005083 | 11.67° C | 67% | 1009.3 hPa | 0 mm | 1.79 m/s, 3° | - | - |
| 1778004183 | 11.67° C | 66% | 1009.3 hPa | 0 mm | 0 m/s | - | - |
| 1778003282 | 12.22° C | 66% | 1009.4 hPa | 0 mm | 2.68 m/s, 53° | - | - |
| 1778002382 | 12.78° C | 65% | 1009.2 hPa | 0 mm | 1.79 m/s, 28° | - | - |
* Rain latest hour (hover to see other rain measurements)
** Current wind speed in m/s (hover to see current wind gust speed)